createdAt,value
2022-08-27T00:01:20.982Z,6.03
2022-08-27T00:03:48.025Z,6.90
2022-08-27T00:06:16.963Z,7.18
2022-08-27T00:08:45.863Z,6.85
2022-08-27T00:11:15.523Z,7.82
2022-08-27T00:13:42.517Z,7.07
2022-08-27T00:16:11.775Z,7.07
2022-08-27T00:18:40.403Z,8.25
2022-08-27T00:21:07.959Z,7.00
2022-08-27T00:23:36.555Z,6.93
2022-08-27T00:26:04.499Z,7.03
2022-08-27T00:28:32.257Z,8.07
2022-08-27T00:30:59.473Z,8.02
2022-08-27T00:33:28.189Z,7.60
2022-08-27T00:35:55.619Z,7.78
2022-08-27T00:38:23.885Z,7.60
2022-08-27T00:40:51.843Z,8.18
2022-08-27T00:43:24.594Z,7.85
2022-08-27T00:45:55.824Z,7.35
2022-08-27T00:48:26.953Z,6.65
2022-08-27T00:50:55.718Z,5.88
2022-08-27T00:53:26.037Z,6.90
2022-08-27T00:55:58.010Z,5.68
2022-08-27T00:58:37.192Z,6.38
2022-08-27T01:01:07.215Z,6.47
2022-08-27T01:03:34.899Z,5.90
2022-08-27T01:06:05.124Z,6.00
2022-08-27T01:08:36.189Z,5.75
2022-08-27T01:11:06.288Z,5.90
2022-08-27T01:13:58.711Z,5.95
2022-08-27T01:16:26.336Z,5.68
2022-08-27T01:18:56.198Z,5.82
2022-08-27T01:21:49.726Z,6.63
2022-08-27T01:24:27.730Z,6.60
2022-08-27T01:26:55.097Z,6.22
2022-08-27T01:29:21.867Z,6.45
2022-08-27T01:31:49.009Z,5.55
2022-08-27T01:34:16.022Z,5.60
2022-08-27T01:36:42.807Z,5.40
2022-08-27T01:39:09.662Z,5.35
2022-08-27T01:41:39.742Z,5.63
2022-08-27T01:44:06.566Z,5.97
2022-08-27T01:46:33.476Z,6.15
2022-08-27T01:49:00.293Z,5.68
2022-08-27T01:51:27.376Z,6.05
2022-08-27T01:53:54.403Z,4.72
2022-08-27T01:56:21.250Z,4.70
2022-08-27T01:58:48.028Z,4.65
2022-08-27T02:01:18.484Z,4.35
2022-08-27T02:03:47.383Z,3.40
2022-08-27T02:06:15.014Z,3.60
2022-08-27T02:08:41.842Z,3.80
2022-08-27T02:11:09.354Z,4.20
2022-08-27T02:13:37.114Z,3.45
2022-08-27T02:16:04.134Z,3.42
2022-08-27T02:18:31.089Z,3.03
2022-08-27T02:20:57.981Z,3.25
2022-08-27T02:23:24.938Z,2.60
2022-08-27T02:25:51.783Z,2.88
2022-08-27T02:28:19.482Z,2.90
2022-08-27T02:30:46.279Z,2.55
2022-08-27T02:33:13.678Z,3.17
2022-08-27T02:35:43.892Z,2.47
2022-08-27T02:38:13.023Z,2.40
2022-08-27T02:40:40.174Z,2.58
2022-08-27T02:43:07.953Z,2.83
2022-08-27T02:45:36.637Z,2.70
2022-08-27T02:48:05.791Z,2.65
2022-08-27T02:50:32.642Z,2.60
2022-08-27T02:53:02.349Z,2.35
2022-08-27T02:55:29.846Z,2.20
2022-08-27T02:57:56.990Z,2.20
2022-08-27T03:00:25.947Z,2.42
2022-08-27T03:02:52.904Z,2.30
2022-08-27T03:05:22.261Z,2.55
2022-08-27T03:07:52.030Z,2.58
2022-08-27T03:10:20.253Z,2.47
2022-08-27T03:12:47.062Z,2.38
2022-08-27T03:15:17.332Z,2.22
2022-08-27T03:18:03.108Z,2.20
2022-08-27T03:20:30.840Z,2.10
2022-08-27T03:22:57.838Z,2.20
2022-08-27T03:25:25.162Z,2.15
2022-08-27T03:27:52.448Z,2.22
2022-08-27T03:30:21.882Z,2.33
2022-08-27T03:32:48.802Z,2.50
2022-08-27T03:35:16.682Z,2.30
2022-08-27T03:37:43.771Z,2.63
2022-08-27T03:40:11.134Z,2.10
2022-08-27T03:42:41.677Z,2.25
2022-08-27T03:45:09.564Z,2.40
2022-08-27T03:47:37.006Z,2.13
2022-08-27T03:50:04.894Z,2.53
2022-08-27T03:52:33.662Z,2.35
2022-08-27T03:55:01.651Z,2.58
2022-08-27T03:57:28.627Z,2.50
2022-08-27T03:59:57.175Z,2.47
2022-08-27T04:02:24.337Z,2.88
2022-08-27T04:04:51.129Z,2.65
2022-08-27T04:07:17.998Z,2.72
2022-08-27T04:09:45.007Z,3.03
2022-08-27T04:12:11.827Z,2.70
2022-08-27T04:14:39.109Z,2.70
2022-08-27T04:17:06.530Z,2.60
2022-08-27T04:19:34.195Z,2.60
2022-08-27T04:22:05.633Z,2.80
2022-08-27T04:24:34.649Z,2.63
2022-08-27T04:27:02.314Z,3.08
2022-08-27T04:29:29.095Z,2.70
2022-08-27T04:31:56.393Z,2.80
2022-08-27T04:34:23.718Z,2.95
2022-08-27T04:36:50.792Z,2.90
2022-08-27T04:39:17.646Z,2.88
2022-08-27T04:41:44.446Z,2.95
2022-08-27T04:44:11.522Z,2.75
2022-08-27T04:46:40.774Z,2.70
2022-08-27T04:49:12.701Z,2.88
2022-08-27T04:51:43.003Z,2.53
2022-08-27T04:54:10.966Z,3.17
2022-08-27T04:56:38.653Z,3.10
2022-08-27T04:59:08.923Z,2.65
2022-08-27T05:01:37.655Z,2.88
2022-08-27T05:04:04.990Z,2.63
2022-08-27T05:06:33.206Z,3.03
2022-08-27T05:08:59.978Z,2.97
2022-08-27T05:11:32.222Z,2.90
2022-08-27T05:13:59.467Z,2.65
2022-08-27T05:16:26.309Z,2.75
2022-08-27T05:18:53.621Z,2.50
2022-08-27T05:21:22.328Z,2.40
2022-08-27T05:23:50.096Z,3.22
2022-08-27T05:26:17.232Z,2.80
2022-08-27T05:28:44.403Z,2.65
2022-08-27T05:31:12.761Z,2.58
2022-08-27T05:33:40.731Z,3.08
2022-08-27T05:36:14.558Z,2.60
2022-08-27T05:38:42.585Z,2.80
2022-08-27T05:41:14.299Z,2.88
2022-08-27T05:43:45.386Z,2.90
2022-08-27T05:46:17.800Z,2.85
2022-08-27T05:48:44.842Z,2.72
2022-08-27T05:51:25.867Z,2.83
2022-08-27T05:54:05.582Z,2.90
2022-08-27T05:56:36.881Z,2.78
2022-08-27T05:59:23.288Z,2.67
2022-08-27T06:01:52.629Z,3.10
2022-08-27T06:04:21.241Z,3.13
2022-08-27T06:06:48.818Z,2.80
2022-08-27T06:09:22.855Z,3.00
2022-08-27T06:11:50.154Z,2.78
2022-08-27T06:14:17.106Z,2.97
2022-08-27T06:16:44.597Z,3.17
2022-08-27T06:19:12.261Z,3.13
2022-08-27T06:21:40.454Z,3.15
2022-08-27T06:24:08.087Z,4.20
2022-08-27T06:26:35.501Z,3.38
2022-08-27T06:29:05.328Z,3.20
2022-08-27T06:31:32.908Z,2.78
2022-08-27T06:34:07.220Z,2.97
2022-08-27T06:36:38.100Z,3.20
2022-08-27T06:39:06.181Z,3.80
2022-08-27T06:41:34.091Z,3.28
2022-08-27T06:44:04.454Z,3.67
2022-08-27T06:46:31.253Z,3.10
2022-08-27T06:49:01.581Z,3.40
2022-08-27T06:51:31.601Z,3.55
2022-08-27T06:54:04.368Z,3.75
2022-08-27T06:56:31.698Z,4.28
2022-08-27T06:59:01.748Z,4.10
2022-08-27T07:01:32.051Z,4.03
2022-08-27T07:04:02.247Z,4.07
2022-08-27T07:06:31.756Z,3.78
2022-08-27T07:09:00.297Z,3.67
2022-08-27T07:11:28.991Z,3.42
2022-08-27T07:13:56.397Z,3.85
2022-08-27T07:16:25.684Z,4.07
2022-08-27T07:18:56.767Z,4.90
2022-08-27T07:21:27.113Z,4.65
2022-08-27T07:23:55.766Z,4.55
2022-08-27T07:26:23.421Z,4.57
2022-08-27T07:28:50.687Z,5.93
2022-08-27T07:31:22.374Z,5.80
2022-08-27T07:33:52.892Z,5.82
2022-08-27T07:36:22.134Z,5.95
2022-08-27T07:38:56.817Z,6.00
2022-08-27T07:41:31.263Z,5.88
2022-08-27T07:44:26.041Z,6.50
2022-08-27T07:46:56.386Z,5.80
2022-08-27T07:49:23.866Z,6.20
2022-08-27T07:51:51.549Z,5.85
2022-08-27T07:54:18.640Z,5.43
2022-08-27T07:56:55.511Z,4.95
2022-08-27T07:59:24.970Z,5.20
2022-08-27T08:01:54.437Z,5.50
2022-08-27T08:04:22.744Z,5.07
2022-08-27T08:06:50.913Z,4.63
2022-08-27T08:09:18.197Z,5.15
2022-08-27T08:11:45.685Z,4.78
2022-08-27T08:14:12.458Z,4.45
2022-08-27T08:16:39.536Z,4.95
2022-08-27T08:19:06.416Z,4.95
2022-08-27T08:21:33.507Z,5.88
2022-08-27T08:24:02.076Z,5.75
2022-08-27T08:26:29.279Z,4.55
2022-08-27T08:28:56.257Z,5.00
2022-08-27T08:31:24.241Z,5.20
2022-08-27T08:33:52.284Z,5.55
2022-08-27T08:36:19.079Z,4.88
2022-08-27T08:38:47.425Z,5.07
2022-08-27T08:41:41.079Z,4.97
2022-08-27T08:44:24.113Z,4.45
2022-08-27T08:46:58.744Z,4.88
2022-08-27T08:49:51.928Z,3.88
2022-08-27T08:52:30.700Z,4.05
2022-08-27T08:55:37.020Z,4.25
2022-08-27T08:58:22.343Z,4.05
2022-08-27T09:01:05.255Z,4.20
2022-08-27T09:03:36.378Z,4.03
2022-08-27T09:06:14.462Z,4.65
2022-08-27T09:08:43.612Z,5.00
2022-08-27T09:11:35.203Z,4.90
2022-08-27T09:14:08.357Z,4.28
2022-08-27T09:16:38.944Z,4.22
2022-08-27T09:19:06.827Z,4.80
2022-08-27T09:21:49.849Z,4.80
2022-08-27T09:24:48.808Z,4.45
2022-08-27T09:27:16.642Z,3.83
2022-08-27T09:29:55.422Z,4.72
2022-08-27T09:32:32.895Z,4.00
2022-08-27T09:35:03.250Z,4.20
2022-08-27T09:37:34.860Z,4.32
2022-08-27T09:40:13.616Z,3.47
2022-08-27T09:42:56.825Z,4.25
2022-08-27T09:45:27.902Z,3.75
2022-08-27T09:48:02.702Z,4.57
2022-08-27T09:50:47.720Z,4.32
2022-08-27T09:53:31.893Z,4.10
2022-08-27T09:56:00.555Z,4.53
2022-08-27T09:58:44.987Z,4.15
2022-08-27T10:01:21.608Z,4.50
2022-08-27T10:03:49.547Z,4.60
2022-08-27T10:06:30.693Z,3.78
2022-08-27T10:09:07.366Z,4.50
2022-08-27T10:11:40.278Z,3.70
2022-08-27T10:14:11.843Z,4.57
2022-08-27T10:17:06.494Z,4.53
2022-08-27T10:19:41.999Z,4.13
2022-08-27T10:22:20.529Z,3.88
2022-08-27T10:25:09.101Z,3.92
2022-08-27T10:27:51.746Z,4.57
2022-08-27T10:30:43.179Z,4.35
2022-08-27T10:33:23.662Z,4.53
2022-08-27T10:36:07.043Z,4.60
2022-08-27T10:38:45.035Z,5.18
2022-08-27T10:41:28.567Z,5.07
2022-08-27T10:44:01.434Z,5.20
2022-08-27T10:46:49.993Z,4.80
2022-08-27T10:49:23.404Z,5.00
2022-08-27T10:52:22.880Z,5.50
2022-08-27T10:55:02.846Z,5.07
2022-08-27T10:58:01.459Z,4.82
2022-08-27T11:01:00.354Z,4.97
2022-08-27T11:03:40.230Z,5.13
2022-08-27T11:06:28.913Z,5.50
2022-08-27T11:09:05.318Z,5.35
2022-08-27T11:12:13.999Z,4.60
2022-08-27T11:14:35.293Z,4.75
2022-08-27T11:17:10.217Z,5.00
2022-08-27T11:19:58.630Z,4.90
2022-08-27T11:22:35.912Z,4.18
2022-08-27T11:25:42.722Z,4.40
2022-08-27T11:28:11.544Z,4.43
2022-08-27T11:31:07.716Z,4.10
2022-08-27T11:33:53.086Z,4.75
2022-08-27T11:36:23.346Z,4.45
2022-08-27T11:39:11.718Z,4.05
2022-08-27T11:42:09.885Z,3.72
2022-08-27T11:44:46.762Z,4.00
2022-08-27T11:47:23.041Z,4.00
2022-08-27T11:49:51.516Z,4.30
2022-08-27T11:52:33.042Z,3.40
2022-08-27T11:55:12.790Z,3.97
2022-08-27T11:57:40.706Z,3.63
2022-08-27T12:00:28.882Z,2.97
2022-08-27T12:03:05.975Z,3.28
2022-08-27T12:05:41.571Z,3.72
2022-08-27T12:08:26.735Z,3.38
2022-08-27T12:11:18.067Z,3.47
2022-08-27T12:13:57.147Z,3.30
2022-08-27T12:16:46.422Z,3.10
2022-08-27T12:19:37.934Z,3.08
2022-08-27T12:22:23.145Z,3.22
2022-08-27T12:24:55.757Z,3.33
2022-08-27T12:27:25.659Z,3.85
2022-08-27T12:30:00.010Z,3.33
2022-08-27T12:32:40.675Z,3.85
2022-08-27T12:35:36.957Z,4.03
2022-08-27T12:38:23.715Z,3.28
2022-08-27T12:40:53.986Z,3.33
2022-08-27T12:43:22.366Z,3.42
2022-08-27T12:45:59.193Z,3.30
2022-08-27T12:48:30.247Z,3.65
2022-08-27T12:51:01.629Z,3.78
2022-08-27T12:53:35.046Z,3.72
2022-08-27T12:56:20.393Z,3.78
2022-08-27T12:59:10.937Z,3.67
2022-08-27T13:01:53.533Z,3.42
2022-08-27T13:04:27.304Z,3.55
2022-08-27T13:06:54.854Z,3.20
2022-08-27T13:09:31.591Z,3.63
2022-08-27T13:12:00.157Z,3.70
2022-08-27T13:14:29.367Z,3.60
2022-08-27T13:17:00.498Z,3.45
2022-08-27T13:19:31.166Z,3.38
2022-08-27T13:22:02.193Z,3.22
2022-08-27T13:24:50.681Z,2.95
2022-08-27T13:27:28.071Z,3.28
2022-08-27T13:29:55.867Z,3.45
2022-08-27T13:32:24.538Z,3.47
2022-08-27T13:34:51.606Z,3.03
2022-08-27T13:37:24.215Z,3.50
2022-08-27T13:39:57.270Z,3.55
2022-08-27T13:42:25.976Z,3.22
2022-08-27T13:44:57.160Z,3.15
2022-08-27T13:47:27.263Z,3.75
2022-08-27T13:50:14.405Z,2.95
2022-08-27T13:53:01.395Z,3.00
2022-08-27T13:55:29.819Z,2.85
2022-08-27T13:58:00.523Z,3.50
2022-08-27T14:00:31.909Z,3.28
2022-08-27T14:03:01.591Z,3.05
2022-08-27T14:05:31.996Z,3.17
2022-08-27T14:08:12.591Z,3.28
2022-08-27T14:10:44.455Z,3.10
2022-08-27T14:13:22.241Z,2.75
2022-08-27T14:15:55.399Z,3.30
2022-08-27T14:18:55.148Z,3.35
2022-08-27T14:21:17.786Z,3.42
2022-08-27T14:23:44.886Z,3.47
2022-08-27T14:26:13.931Z,3.55
2022-08-27T14:28:40.860Z,3.80
2022-08-27T14:31:07.620Z,3.42
2022-08-27T14:33:34.474Z,3.83
2022-08-27T14:36:01.238Z,3.42
2022-08-27T14:38:32.059Z,3.72
2022-08-27T14:40:58.956Z,4.07
2022-08-27T14:43:26.068Z,3.42
2022-08-27T14:45:53.994Z,3.30
2022-08-27T14:48:33.275Z,3.25
2022-08-27T14:51:07.758Z,3.53
2022-08-27T14:53:34.583Z,3.30
2022-08-27T14:56:01.873Z,3.28
2022-08-27T14:58:29.598Z,3.55
2022-08-27T15:00:57.783Z,3.10
2022-08-27T15:03:28.356Z,3.10
2022-08-27T15:05:56.227Z,3.20
2022-08-27T15:08:27.639Z,3.35
2022-08-27T15:10:58.035Z,3.03
2022-08-27T15:13:25.251Z,3.40
2022-08-27T15:15:52.772Z,3.20
2022-08-27T15:18:20.285Z,3.00
2022-08-27T15:20:47.581Z,3.40
2022-08-27T15:23:15.711Z,3.42
2022-08-27T15:25:45.715Z,3.70
2022-08-27T15:28:12.743Z,3.80
2022-08-27T15:30:39.703Z,3.25
2022-08-27T15:33:07.130Z,3.00
2022-08-27T15:35:34.274Z,3.25
2022-08-27T15:38:01.440Z,2.67
2022-08-27T15:40:31.881Z,2.95
2022-08-27T15:43:02.436Z,3.53
2022-08-27T15:45:32.427Z,3.30
2022-08-27T15:48:00.247Z,3.22
2022-08-27T15:50:28.866Z,3.20
2022-08-27T15:53:01.633Z,3.28
2022-08-27T15:55:32.551Z,2.80
2022-08-27T15:58:00.973Z,3.33
2022-08-27T16:00:30.327Z,3.15
2022-08-27T16:02:57.511Z,2.85
2022-08-27T16:05:26.231Z,3.28
2022-08-27T16:07:52.977Z,2.92
2022-08-27T16:10:20.086Z,3.17
2022-08-27T16:12:46.902Z,3.50
2022-08-27T16:15:14.190Z,3.10
2022-08-27T16:17:42.119Z,3.55
2022-08-27T16:20:12.360Z,4.68
2022-08-27T16:22:39.530Z,3.55
2022-08-27T16:25:07.935Z,3.72
2022-08-27T16:27:35.343Z,4.05
2022-08-27T16:30:02.167Z,3.47
2022-08-27T16:32:31.422Z,3.70
2022-08-27T16:34:58.467Z,3.80
2022-08-27T16:37:25.432Z,3.60
2022-08-27T16:39:52.343Z,3.70
2022-08-27T16:42:20.312Z,3.97
2022-08-27T16:44:47.093Z,3.80
2022-08-27T16:47:14.040Z,3.78
2022-08-27T16:49:59.598Z,3.80
2022-08-27T16:52:26.480Z,4.35
2022-08-27T16:54:53.342Z,3.55
2022-08-27T16:57:20.449Z,3.88
2022-08-27T16:59:47.279Z,4.22
2022-08-27T17:02:31.590Z,3.55
2022-08-27T17:05:23.801Z,3.70
2022-08-27T17:07:48.192Z,4.05
2022-08-27T17:10:19.474Z,3.92
2022-08-27T17:12:47.835Z,3.85
2022-08-27T17:15:18.674Z,3.38
2022-08-27T17:17:46.479Z,4.05
2022-08-27T17:20:15.214Z,3.67
2022-08-27T17:22:42.853Z,3.70
2022-08-27T17:25:10.081Z,3.80
2022-08-27T17:27:36.866Z,4.25
2022-08-27T17:30:04.678Z,4.05
2022-08-27T17:32:37.378Z,4.28
2022-08-27T17:35:06.946Z,3.70
2022-08-27T17:37:34.856Z,3.83
2022-08-27T17:40:02.126Z,4.18
2022-08-27T17:42:31.156Z,4.00
2022-08-27T17:44:58.877Z,4.10
2022-08-27T17:47:26.123Z,4.00
2022-08-27T17:49:52.969Z,4.85
2022-08-27T17:52:20.643Z,4.10
2022-08-27T17:54:54.227Z,5.07
2022-08-27T17:57:24.490Z,5.95
2022-08-27T17:59:53.363Z,5.65
2022-08-27T18:02:25.317Z,6.88
2022-08-27T18:04:52.485Z,6.78
2022-08-27T18:07:19.691Z,7.20
2022-08-27T18:09:47.527Z,6.78
2022-08-27T18:12:18.072Z,8.00
2022-08-27T18:15:06.230Z,8.23
2022-08-27T18:17:34.613Z,8.40
2022-08-27T18:20:04.585Z,9.05
2022-08-27T18:22:35.133Z,8.32
2022-08-27T18:25:08.390Z,8.52
2022-08-27T18:27:37.103Z,5.63
2022-08-27T18:30:05.163Z,4.03
2022-08-27T18:32:32.195Z,3.00
2022-08-27T18:35:13.431Z,2.80
2022-08-27T18:37:41.273Z,3.53
2022-08-27T18:40:09.887Z,3.30
2022-08-27T18:42:38.263Z,2.88
2022-08-27T18:45:19.138Z,3.63
2022-08-27T18:47:45.948Z,3.38
2022-08-27T18:50:17.479Z,3.30
2022-08-27T18:52:46.775Z,2.78
2022-08-27T18:55:17.397Z,2.17
2022-08-27T18:57:44.253Z,2.45
2022-08-27T19:00:13.675Z,1.90
2022-08-27T19:02:42.436Z,2.33
2022-08-27T19:05:11.405Z,1.80
2022-08-27T19:07:38.434Z,1.80
2022-08-27T19:10:07.121Z,2.00
2022-08-27T19:12:33.961Z,1.83
2022-08-27T19:15:04.253Z,2.38
2022-08-27T19:17:34.433Z,2.42
2022-08-27T19:20:02.475Z,2.20
2022-08-27T19:22:31.426Z,2.13
2022-08-27T19:24:59.491Z,2.60
2022-08-27T19:27:29.359Z,2.35
2022-08-27T19:29:56.286Z,2.60
2022-08-27T19:32:23.431Z,2.50
2022-08-27T19:34:50.411Z,2.35
2022-08-27T19:37:22.274Z,2.72
2022-08-27T19:39:49.246Z,2.63
2022-08-27T19:42:16.196Z,3.05
2022-08-27T19:44:44.395Z,2.78
2022-08-27T19:47:13.791Z,3.25
2022-08-27T19:49:41.989Z,2.78
2022-08-27T19:52:08.861Z,2.67
2022-08-27T19:54:43.157Z,3.05
2022-08-27T19:57:19.269Z,3.35
2022-08-27T19:59:46.145Z,3.22
2022-08-27T20:02:13.014Z,4.32
2022-08-27T20:04:55.881Z,5.03
2022-08-27T20:07:26.941Z,4.57
2022-08-27T20:09:53.769Z,5.05
2022-08-27T20:12:21.901Z,4.95
2022-08-27T20:14:51.664Z,5.05
2022-08-27T20:17:19.162Z,4.95
2022-08-27T20:19:47.420Z,5.22
2022-08-27T20:22:16.379Z,5.65
2022-08-27T20:24:43.273Z,6.10
2022-08-27T20:27:10.046Z,5.80
2022-08-27T20:29:37.372Z,6.28
2022-08-27T20:32:04.435Z,5.70
2022-08-27T20:34:32.627Z,5.85
2022-08-27T20:37:02.479Z,6.43
2022-08-27T20:39:29.380Z,7.20
2022-08-27T20:41:56.181Z,6.20
2022-08-27T20:44:22.946Z,6.47
2022-08-27T20:46:55.054Z,6.60
2022-08-27T20:49:22.013Z,6.30
2022-08-27T20:51:53.472Z,6.40
2022-08-27T20:54:30.299Z,6.53
2022-08-27T20:56:58.867Z,6.35
2022-08-27T20:59:44.710Z,6.60
2022-08-27T21:02:13.531Z,6.57
2022-08-27T21:04:47.826Z,6.38
2022-08-27T21:07:16.577Z,6.05
2022-08-27T21:09:57.187Z,6.20
2022-08-27T21:12:29.526Z,6.65
2022-08-27T21:14:57.994Z,6.50
2022-08-27T21:17:27.139Z,6.03
2022-08-27T21:19:54.093Z,6.47
2022-08-27T21:22:21.908Z,6.35
2022-08-27T21:24:48.902Z,6.57
2022-08-27T21:27:17.039Z,6.50
2022-08-27T21:29:47.000Z,6.28
2022-08-27T21:32:15.191Z,5.47
2022-08-27T21:34:42.264Z,4.55
2022-08-27T21:37:11.021Z,5.35
2022-08-27T21:39:38.807Z,5.50
2022-08-27T21:42:05.851Z,5.70
2022-08-27T21:44:32.843Z,5.70
2022-08-27T21:47:01.790Z,5.75
2022-08-27T21:49:28.795Z,5.75
2022-08-27T21:51:55.625Z,5.40
2022-08-27T21:54:23.444Z,5.95
2022-08-27T21:56:53.154Z,5.88
2022-08-27T21:59:20.298Z,5.18
2022-08-27T22:01:50.620Z,5.60
2022-08-27T22:04:26.770Z,5.13
2022-08-27T22:06:57.617Z,4.82
2022-08-27T22:09:24.366Z,4.65
2022-08-27T22:11:51.224Z,4.55
2022-08-27T22:14:18.342Z,4.95
2022-08-27T22:16:45.246Z,5.10
2022-08-27T22:19:12.019Z,5.05
2022-08-27T22:21:39.088Z,4.68
2022-08-27T22:24:06.274Z,5.28
2022-08-27T22:26:33.205Z,5.00
2022-08-27T22:29:00.431Z,4.97
2022-08-27T22:31:27.317Z,4.63
2022-08-27T22:33:54.113Z,4.32
2022-08-27T22:36:20.974Z,4.25
2022-08-27T22:38:48.039Z,4.30
2022-08-27T22:41:18.502Z,4.05
2022-08-27T22:43:46.023Z,3.90
2022-08-27T22:46:13.109Z,4.38
2022-08-27T22:48:39.927Z,3.40
2022-08-27T22:51:06.912Z,3.60
2022-08-27T22:53:36.202Z,2.65
2022-08-27T22:56:06.303Z,3.22
2022-08-27T22:58:33.351Z,3.40
2022-08-27T23:01:00.625Z,3.42
2022-08-27T23:03:27.474Z,3.50
2022-08-27T23:05:54.908Z,2.58
2022-08-27T23:08:23.301Z,3.15
2022-08-27T23:10:50.146Z,2.90
2022-08-27T23:13:17.078Z,3.05
2022-08-27T23:15:43.990Z,2.72
2022-08-27T23:18:11.241Z,2.88
2022-08-27T23:20:38.585Z,2.92
2022-08-27T23:23:08.033Z,3.03
2022-08-27T23:25:53.505Z,3.25
2022-08-27T23:28:21.566Z,2.70
2022-08-27T23:30:48.639Z,2.78
2022-08-27T23:33:15.757Z,2.67
2022-08-27T23:35:47.972Z,2.60
2022-08-27T23:38:16.912Z,3.30
2022-08-27T23:40:44.281Z,3.00
2022-08-27T23:43:11.365Z,3.17
2022-08-27T23:45:40.567Z,3.28
2022-08-27T23:48:07.662Z,3.20
2022-08-27T23:50:35.144Z,3.28
2022-08-27T23:53:03.776Z,3.20
2022-08-27T23:55:30.887Z,3.28
2022-08-27T23:57:57.870Z,2.95
